Time;durP1;ratioP1;P1;durP2;ratioP2;P2;SDS_P1;SDS_P2;PMS_P1;PMS_P2;Temp;Humidity;BMP_temperature;BMP_pressure;BME280_temperature;BME280_humidity;BME280_pressure;Samples;Min_cycle;Max_cycle;Signal;HPM_P1;HPM_P2
2023/06/11 00:01:54;;;;;;;10.25;5.18;;;19.70;99.90;;;;;;4971642;28;20081;-75
2023/06/11 00:04:24;;;;;;;9.32;5.60;;;19.70;99.90;;;;;;4972758;28;20077;-74
2023/06/11 00:06:54;;;;;;;9.20;6.28;;;19.70;99.90;;;;;;4969481;28;20106;-74
2023/06/11 00:09:22;;;;;;;12.65;6.32;;;19.60;99.90;;;;;;4969649;28;20105;-74
2023/06/11 00:11:48;;;;;;;9.13;5.65;;;19.70;99.90;;;;;;4968332;28;20114;-74
2023/06/11 00:14:14;;;;;;;10.23;6.10;;;19.70;99.90;;;;;;4976739;28;20130;-74
2023/06/11 00:16:40;;;;;;;9.63;5.72;;;19.60;99.90;;;;;;4973485;28;20022;-74
2023/06/11 00:19:06;;;;;;;9.48;5.78;;;19.70;99.90;;;;;;4973077;28;20035;-75
2023/06/11 00:21:32;;;;;;;10.27;5.90;;;19.60;99.90;;;;;;4965267;28;20073;-74
2023/06/11 00:23:59;;;;;;;12.07;6.53;;;19.60;99.90;;;;;;4969669;28;20031;-74
2023/06/11 00:26:26;;;;;;;9.95;6.40;;;19.60;99.90;;;;;;4953514;28;20474;-74
2023/06/11 00:28:52;;;;;;;10.05;5.65;;;19.60;99.90;;;;;;4952668;28;20050;-74
2023/06/11 00:31:18;;;;;;;9.80;6.13;;;19.60;99.90;;;;;;4956611;28;20471;-74
2023/06/11 00:33:44;;;;;;;15.20;5.93;;;19.60;99.90;;;;;;4935288;28;20039;-74
2023/06/11 00:36:11;;;;;;;10.52;6.47;;;19.60;99.90;;;;;;4952913;28;20038;-74
2023/06/11 00:38:38;;;;;;;12.70;6.45;;;19.60;99.90;;;;;;4951692;28;20078;-74
2023/06/11 00:41:04;;;;;;;8.73;5.75;;;19.60;99.90;;;;;;4958238;28;20030;-74
2023/06/11 00:43:30;;;;;;;13.38;6.45;;;19.60;99.90;;;;;;4972258;28;20063;-74
2023/06/11 00:45:56;;;;;;;10.35;5.85;;;19.60;99.90;;;;;;4955313;28;20034;-74
2023/06/11 00:48:22;;;;;;;12.57;6.07;;;19.60;99.90;;;;;;4973472;28;20502;-74
2023/06/11 00:50:50;;;;;;;13.02;5.38;;;19.60;99.90;;;;;;4972918;28;20042;-74
2023/06/11 00:53:17;;;;;;;10.45;6.05;;;19.70;99.90;;;;;;4973556;28;20396;-74
2023/06/11 00:55:45;;;;;;;11.60;6.07;;;19.60;99.90;;;;;;4973088;28;20117;-74
2023/06/11 00:58:15;;;;;;;9.65;6.13;;;19.70;99.90;;;;;;4973383;28;20039;-74
2023/06/11 01:00:50;;;;;;;12.85;6.43;;;19.60;99.90;;;;;;4987827;28;20490;-75
2023/06/11 01:03:22;;;;;;;12.90;6.55;;;19.60;99.90;;;;;;4972970;28;20038;-76
2023/06/11 01:05:53;;;;;;;13.43;6.43;;;19.60;99.90;;;;;;4955738;28;20078;-76
2023/06/11 01:08:19;;;;;;;9.88;6.20;;;19.50;99.90;;;;;;4968551;28;20034;-75
2023/06/11 01:10:49;;;;;;;11.23;6.22;;;19.50;99.90;;;;;;4955897;28;20781;-75
2023/06/11 01:13:16;;;;;;;9.73;6.15;;;19.50;99.90;;;;;;4955608;28;20486;-76
2023/06/11 01:15:41;;;;;;;10.63;6.72;;;19.40;99.90;;;;;;4954908;28;20050;-75
2023/06/11 01:18:22;;;;;;;10.77;6.28;;;19.40;99.90;;;;;;4972946;28;20511;-75
2023/06/11 01:21:07;;;;;;;11.88;7.10;;;19.40;99.90;;;;;;4972903;28;20031;-75
2023/06/11 01:24:03;;;;;;;10.57;6.32;;;19.40;99.90;;;;;;4955195;28;20038;-75
2023/06/11 01:26:47;;;;;;;11.88;6.80;;;19.50;99.90;;;;;;4955689;28;20027;-75
2023/06/11 01:29:15;;;;;;;11.80;6.15;;;19.40;99.90;;;;;;4955265;28;20031;-75
2023/06/11 01:31:43;;;;;;;12.30;6.47;;;19.40;99.90;;;;;;4973151;28;20027;-75
2023/06/11 01:34:13;;;;;;;10.85;6.57;;;19.40;99.90;;;;;;4955534;28;20121;-75
2023/06/11 01:36:39;;;;;;;12.05;6.40;;;19.40;99.90;;;;;;4987775;28;20619;-75
2023/06/11 01:39:06;;;;;;;13.77;6.72;;;19.50;99.90;;;;;;4955290;28;20030;-74
2023/06/11 01:41:41;;;;;;;9.90;5.88;;;19.50;99.90;;;;;;4955429;28;20026;-76
2023/06/11 01:44:12;;;;;;;12.18;6.65;;;19.50;99.90;;;;;;4955373;28;20482;-75
2023/06/11 01:46:38;;;;;;;9.02;5.95;;;19.50;99.90;;;;;;4972918;28;20102;-75
2023/06/11 01:49:04;;;;;;;11.13;7.00;;;19.60;99.90;;;;;;4955114;28;20134;-76
2023/06/11 01:51:30;;;;;;;9.05;6.10;;;19.60;99.90;;;;;;4972822;28;20118;-75
2023/06/11 01:53:56;;;;;;;9.88;5.95;;;19.70;99.90;;;;;;4955033;28;20031;-76
2023/06/11 01:56:23;;;;;;;11.35;6.32;;;19.70;99.90;;;;;;4958054;28;20121;-76
2023/06/11 01:58:49;;;;;;;11.63;6.28;;;19.70;99.90;;;;;;4958651;28;20110;-75
2023/06/11 02:01:14;;;;;;;12.00;7.35;;;19.60;99.90;;;;;;4958920;28;20097;-75
2023/06/11 02:03:41;;;;;;;17.70;7.53;;;19.50;99.90;;;;;;4958635;28;20029;-75
2023/06/11 02:06:07;;;;;;;12.68;6.80;;;19.50;99.90;;;;;;4976076;28;20086;-74
2023/06/11 02:08:34;;;;;;;12.75;7.22;;;19.50;99.90;;;;;;4958400;28;20031;-74
2023/06/11 02:11:01;;;;;;;9.88;7.15;;;19.50;99.90;;;;;;4958576;28;20561;-75
2023/06/11 02:13:30;;;;;;;13.10;7.97;;;19.40;99.90;;;;;;4975956;28;20023;-74
2023/06/11 02:15:58;;;;;;;13.98;7.82;;;19.50;99.90;;;;;;4975412;28;20046;-75
2023/06/11 02:18:24;;;;;;;12.73;7.72;;;19.50;99.90;;;;;;4976131;28;20026;-74
2023/06/11 02:20:50;;;;;;;14.38;7.97;;;19.50;99.90;;;;;;4958221;28;20109;-75
2023/06/11 02:23:18;;;;;;;12.18;7.13;;;19.50;99.90;;;;;;4958415;28;20058;-76
2023/06/11 02:25:44;;;;;;;15.18;7.57;;;19.50;99.90;;;;;;4975557;28;20441;-75
2023/06/11 02:28:11;;;;;;;11.07;7.03;;;19.40;99.90;;;;;;4958481;28;20030;-75
2023/06/11 02:30:37;;;;;;;13.82;8.27;;;19.40;99.90;;;;;;4958021;28;20089;-74
2023/06/11 02:33:04;;;;;;;14.07;7.57;;;19.20;99.90;;;;;;4975583;28;20015;-74
2023/06/11 02:35:32;;;;;;;14.07;8.80;;;19.20;99.90;;;;;;4958216;28;20397;-74
2023/06/11 02:37:58;;;;;;;12.88;7.05;;;19.20;99.90;;;;;;4975249;28;20027;-74
2023/06/11 02:40:23;;;;;;;11.50;7.10;;;19.20;99.90;;;;;;4975610;28;20027;-74
2023/06/11 02:42:49;;;;;;;14.02;8.05;;;19.20;99.90;;;;;;4957839;28;20031;-74
2023/06/11 02:45:16;;;;;;;14.98;8.07;;;19.70;99.90;;;;;;4957411;28;20043;-74
2023/06/11 02:47:42;;;;;;;16.42;9.30;;;19.20;99.90;;;;;;4957484;28;20042;-74
2023/06/11 02:50:08;;;;;;;16.90;8.52;;;19.10;99.90;;;;;;4975533;28;20110;-74
2023/06/11 02:52:34;;;;;;;17.88;8.00;;;;;;;;;;4957732;28;20038;-74
2023/06/11 02:55:00;;;;;;;13.23;8.20;;;;;;;;;;4957937;28;20042;-73
2023/06/11 02:57:26;;;;;;;17.17;8.55;;;19.10;99.90;;;;;;4956977;28;20121;-74
2023/06/11 02:59:52;;;;;;;15.95;8.63;;;19.10;99.90;;;;;;4957638;28;20119;-74
2023/06/11 03:02:17;;;;;;;13.73;8.13;;;19.10;99.90;;;;;;4957848;28;20027;-74
2023/06/11 03:04:43;;;;;;;16.42;7.65;;;19.00;99.90;;;;;;4974729;28;20090;-75
2023/06/11 03:07:09;;;;;;;12.82;7.57;;;19.10;99.90;;;;;;4956551;28;20387;-76
2023/06/11 03:09:35;;;;;;;12.93;7.18;;;19.10;99.90;;;;;;4974585;28;20030;-75
2023/06/11 03:12:01;;;;;;;11.80;7.55;;;19.10;99.90;;;;;;4974866;28;20027;-74
2023/06/11 03:14:27;;;;;;;15.45;7.90;;;19.10;99.90;;;;;;4986798;28;20031;-75
2023/06/11 03:16:53;;;;;;;13.45;8.10;;;19.10;99.90;;;;;;4974281;28;20493;-75
2023/06/11 03:19:19;;;;;;;13.52;7.15;;;19.10;99.90;;;;;;4973986;28;20502;-74
2023/06/11 03:21:47;;;;;;;15.45;7.55;;;19.10;99.90;;;;;;4957614;28;20019;-75
2023/06/11 03:24:14;;;;;;;14.10;7.30;;;19.10;99.90;;;;;;4956927;28;20601;-74
2023/06/11 03:26:40;;;;;;;14.20;7.45;;;19.10;99.90;;;;;;4956852;28;20106;-74
2023/06/11 03:29:06;;;;;;;13.68;7.32;;;19.10;99.90;;;;;;4956629;28;20463;-74
2023/06/11 03:31:40;;;;;;;13.30;7.65;;;19.10;99.90;;;;;;4956966;28;20110;-74
2023/06/11 03:34:07;;;;;;;11.95;7.13;;;19.10;99.90;;;;;;4956584;28;20033;-74
2023/06/11 03:36:33;;;;;;;12.43;6.75;;;19.20;99.90;;;;;;4956980;28;20033;-74
2023/06/11 03:39:01;;;;;;;12.57;7.10;;;19.20;99.90;;;;;;4956804;28;20027;-75
2023/06/11 03:41:27;;;;;;;10.38;6.35;;;19.30;99.90;;;;;;4956452;28;20035;-75
2023/06/11 03:43:54;;;;;;;11.25;6.53;;;19.40;99.90;;;;;;4956847;28;20030;-74
2023/06/11 03:46:21;;;;;;;20.67;7.28;;;19.40;99.90;;;;;;4956516;28;20035;-75
2023/06/11 03:48:48;;;;;;;13.77;7.13;;;19.40;99.90;;;;;;4973606;28;20502;-74
2023/06/11 03:51:14;;;;;;;10.95;6.63;;;19.50;99.90;;;;;;4974279;28;20035;-75
2023/06/11 03:53:40;;;;;;;13.25;7.30;;;19.50;99.90;;;;;;4956354;28;20034;-75
2023/06/11 03:56:06;;;;;;;11.70;6.55;;;19.40;99.90;;;;;;4956373;28;20046;-74
2023/06/11 03:58:32;;;;;;;10.63;6.13;;;19.40;99.90;;;;;;4956553;28;20026;-74
2023/06/11 04:00:58;;;;;;;12.90;7.47;;;19.30;99.90;;;;;;4956367;28;20031;-76
2023/06/11 04:03:24;;;;;;;12.45;7.22;;;19.40;99.90;;;;;;4988365;28;20023;-74
2023/06/11 04:05:50;;;;;;;14.25;7.93;;;19.40;99.90;;;;;;4973816;28;20398;-74
2023/06/11 04:08:16;;;;;;;12.75;7.70;;;19.40;99.90;;;;;;4956300;28;20026;-75
2023/06/11 04:10:43;;;;;;;13.27;6.40;;;19.40;99.90;;;;;;4956459;28;20038;-74
2023/06/11 04:13:09;;;;;;;13.90;7.45;;;19.40;99.90;;;;;;4956524;28;20035;-76
2023/06/11 04:15:35;;;;;;;22.33;7.68;;;19.40;99.90;;;;;;4956131;28;20125;-75
2023/06/11 04:18:05;;;;;;;14.98;6.97;;;19.50;99.90;;;;;;4956739;28;20542;-74
2023/06/11 04:20:31;;;;;;;14.00;7.75;;;19.40;99.90;;;;;;4973488;28;20114;-75
2023/06/11 04:22:58;;;;;;;12.43;7.85;;;19.60;99.90;;;;;;4956089;28;20031;-76
2023/06/11 04:25:24;;;;;;;13.82;7.05;;;19.60;99.90;;;;;;4953021;28;20031;-74
2023/06/11 04:27:52;;;;;;;16.48;7.45;;;19.50;99.90;;;;;;4950294;28;20031;-74
2023/06/11 04:30:20;;;;;;;12.57;7.53;;;19.60;99.90;;;;;;4952733;28;20035;-75
2023/06/11 04:32:54;;;;;;;13.13;7.38;;;19.70;99.90;;;;;;4942196;28;20019;-74
2023/06/11 04:35:23;;;;;;;14.25;7.70;;;19.70;99.90;;;;;;4955856;28;20038;-75
2023/06/11 04:37:50;;;;;;;13.55;7.68;;;19.60;99.90;;;;;;4972612;28;20524;-75
2023/06/11 04:40:23;;;;;;;15.15;8.38;;;19.70;99.90;;;;;;4955788;28;20517;-75
2023/06/11 04:42:49;;;;;;;12.85;7.43;;;19.60;99.90;;;;;;4948521;28;20475;-76
2023/06/11 04:45:20;;;;;;;13.20;7.90;;;19.60;99.90;;;;;;4950807;28;20474;-73
2023/06/11 04:47:47;;;;;;;12.60;7.07;;;19.60;99.90;;;;;;4955959;28;20030;-74
2023/06/11 04:50:20;;;;;;;14.25;7.15;;;19.50;99.90;;;;;;4955396;28;20034;-73
2023/06/11 04:52:49;;;;;;;12.75;7.50;;;19.50;99.90;;;;;;4956114;28;20090;-74
2023/06/11 04:55:16;;;;;;;12.15;7.53;;;19.60;99.90;;;;;;4955607;28;20042;-74
2023/06/11 04:57:42;;;;;;;14.10;7.53;;;19.60;99.90;;;;;;4955499;28;20031;-74
2023/06/11 05:00:12;;;;;;;12.10;7.40;;;19.60;99.90;;;;;;4955649;28;20026;-75
2023/06/11 05:02:43;;;;;;;17.08;7.63;;;19.70;99.90;;;;;;4955451;28;20145;-76
2023/06/11 05:05:10;;;;;;;14.48;8.32;;;19.60;99.90;;;;;;4955244;28;20047;-76
2023/06/11 05:07:36;;;;;;;11.45;7.57;;;19.60;99.90;;;;;;4972805;28;20026;-74
2023/06/11 05:10:02;;;;;;;11.88;7.70;;;19.70;99.90;;;;;;4955672;28;20049;-74
2023/06/11 05:12:29;;;;;;;13.95;8.18;;;19.80;99.90;;;;;;4955477;28;20148;-75
2023/06/11 05:14:55;;;;;;;14.52;8.57;;;19.80;99.90;;;;;;4954946;28;20125;-75
2023/06/11 05:17:22;;;;;;;12.15;7.18;;;20.00;99.90;;;;;;4955445;28;20035;-75
2023/06/11 05:19:48;;;;;;;14.57;8.18;;;20.10;99.90;;;;;;4955165;28;20057;-73
2023/06/11 05:22:15;;;;;;;14.60;7.70;;;20.20;99.90;;;;;;4955404;28;20081;-74
2023/06/11 05:24:42;;;;;;;13.45;7.35;;;20.20;99.90;;;;;;4955131;28;20085;-75
2023/06/11 05:27:09;;;;;;;13.57;8.07;;;20.20;99.90;;;;;;4955666;28;20023;-75
2023/06/11 05:29:37;;;;;;;11.52;7.25;;;20.40;99.90;;;;;;4955346;28;20035;-75
2023/06/11 05:32:05;;;;;;;11.05;6.47;;;20.50;99.90;;;;;;4959083;28;20370;-74
2023/06/11 05:34:33;;;;;;;12.85;8.23;;;20.40;99.90;;;;;;4948168;28;20125;-74
2023/06/11 05:37:02;;;;;;;11.18;7.07;;;20.50;99.90;;;;;;4958359;28;20466;-74
2023/06/11 05:39:29;;;;;;;11.43;7.13;;;20.60;99.90;;;;;;4946136;28;20078;-74
2023/06/11 05:41:55;;;;;;;11.18;7.10;;;20.60;99.90;;;;;;4957401;28;20035;-72
2023/06/11 05:44:23;;;;;;;12.80;7.28;;;20.60;99.90;;;;;;4977969;28;20030;-73
2023/06/11 05:46:49;;;;;;;12.75;7.40;;;20.50;99.90;;;;;;4975119;28;20023;-73
2023/06/11 05:49:18;;;;;;;12.57;7.78;;;20.30;99.90;;;;;;4959781;28;20030;-73
2023/06/11 05:51:45;;;;;;;10.18;6.47;;;20.20;99.90;;;;;;4957732;28;20110;-73
2023/06/11 05:54:11;;;;;;;14.27;7.75;;;20.10;99.90;;;;;;4972429;28;20125;-72
2023/06/11 05:56:39;;;;;;;14.32;7.70;;;20.00;99.90;;;;;;4946531;28;20019;-73
2023/06/11 05:59:06;;;;;;;10.15;6.85;;;20.10;99.90;;;;;;4958692;28;20038;-73
2023/06/11 06:01:33;;;;;;;14.82;8.00;;;20.00;99.90;;;;;;4976390;28;20189;-73
2023/06/11 06:04:00;;;;;;;14.20;7.45;;;20.00;99.90;;;;;;4943663;28;20104;-73
2023/06/11 06:06:30;;;;;;;12.50;7.57;;;20.10;99.90;;;;;;4958684;28;20038;-74
2023/06/11 06:08:56;;;;;;;11.70;7.35;;;20.10;99.90;;;;;;4983525;28;20029;-73
2023/06/11 06:11:22;;;;;;;13.05;7.25;;;20.10;99.90;;;;;;4972462;28;20026;-73
2023/06/11 06:13:48;;;;;;;12.40;8.00;;;20.10;99.90;;;;;;4959573;28;20026;-73
2023/06/11 06:16:14;;;;;;;12.45;7.63;;;20.00;99.90;;;;;;4981173;28;20441;-73
2023/06/11 06:18:42;;;;;;;12.20;6.95;;;20.00;99.90;;;;;;4977169;28;20406;-73
2023/06/11 06:21:08;;;;;;;13.02;8.07;;;19.90;99.90;;;;;;4959394;28;20434;-73
2023/06/11 06:23:34;;;;;;;15.20;6.95;;;19.90;99.90;;;;;;4959415;28;20130;-73
2023/06/11 06:26:04;;;;;;;12.30;7.78;;;19.90;99.90;;;;;;4958985;28;20089;-73
2023/06/11 06:28:32;;;;;;;13.98;8.13;;;19.90;99.90;;;;;;4976730;28;20114;-73
2023/06/11 06:31:02;;;;;;;12.02;7.40;;;19.90;99.90;;;;;;4959447;28;20054;-74
2023/06/11 06:33:34;;;;;;;12.40;7.38;;;19.90;99.90;;;;;;4943145;28;20026;-73
2023/06/11 06:36:02;;;;;;;14.35;8.52;;;20.00;99.90;;;;;;4974823;28;20114;-73
2023/06/11 06:38:31;;;;;;;10.95;6.70;;;20.00;99.90;;;;;;4959460;28;20023;-73
2023/06/11 06:40:58;;;;;;;10.80;7.20;;;20.10;99.90;;;;;;4960473;28;20095;-73
2023/06/11 06:43:24;;;;;;;12.05;7.65;;;20.00;99.90;;;;;;4960393;28;20049;-73
2023/06/11 06:45:55;;;;;;;11.48;7.22;;;20.20;99.90;;;;;;4961064;28;20105;-72
2023/06/11 06:48:26;;;;;;;11.95;7.10;;;20.10;99.90;;;;;;4972512;28;20031;-73
2023/06/11 06:50:54;;;;;;;11.68;6.63;;;20.10;99.90;;;;;;4948834;28;20050;-73
2023/06/11 06:53:22;;;;;;;12.00;7.50;;;20.20;99.90;;;;;;4969653;28;20052;-73
2023/06/11 06:55:47;;;;;;;11.60;6.47;;;20.20;99.90;;;;;;4939704;28;20041;-73
2023/06/11 06:58:13;;;;;;;11.45;6.93;;;20.20;99.90;;;;;;4958384;28;20142;-73
2023/06/11 07:00:41;;;;;;;8.27;5.57;;;20.20;99.90;;;;;;4990115;28;20486;-73
2023/06/11 07:03:09;;;;;;;10.88;6.35;;;20.30;99.90;;;;;;4957395;28;20121;-73
2023/06/11 07:05:35;;;;;;;7.10;4.55;;;20.40;99.90;;;;;;4974736;28;20046;-73
2023/06/11 07:08:01;;;;;;;5.95;3.80;;;20.30;99.90;;;;;;4957761;28;20133;-73
2023/06/11 07:10:27;;;;;;;6.18;4.10;;;20.40;99.90;;;;;;4956942;28;20039;-73
2023/06/11 07:12:53;;;;;;;6.65;4.28;;;20.20;99.90;;;;;;4975311;28;20058;-73
2023/06/11 07:15:19;;;;;;;8.60;4.85;;;20.40;99.90;;;;;;4953645;29;20507;-74
2023/06/11 07:17:45;;;;;;;8.88;4.57;;;20.30;99.90;;;;;;4952348;28;20125;-74
2023/06/11 07:20:11;;;;;;;7.45;3.95;;;20.40;99.90;;;;;;4957299;28;20046;-74
2023/06/11 07:22:37;;;;;;;8.43;3.90;;;20.40;99.90;;;;;;4944179;28;20479;-74
2023/06/11 07:25:06;;;;;;;6.65;4.05;;;20.40;99.90;;;;;;4956775;28;20073;-75
2023/06/11 07:27:32;;;;;;;6.07;3.72;;;20.60;99.90;;;;;;4957044;28;20023;-74
2023/06/11 07:29:58;;;;;;;5.60;4.05;;;20.60;99.90;;;;;;4957406;28;20035;-74
2023/06/11 07:32:24;;;;;;;9.85;4.50;;;20.70;99.90;;;;;;4973810;28;20023;-74
2023/06/11 07:34:50;;;;;;;12.18;5.22;;;20.80;99.90;;;;;;4974481;28;20031;-74
2023/06/11 07:37:15;;;;;;;11.13;6.40;;;20.90;99.90;;;;;;4956641;28;20117;-74
2023/06/11 07:39:41;;;;;;;9.63;5.63;;;21.10;99.90;;;;;;4956882;28;20069;-74
2023/06/11 07:42:08;;;;;;;10.00;6.80;;;21.10;99.90;;;;;;4956408;28;20026;-74
2023/06/11 07:44:33;;;;;;;11.68;6.80;;;21.30;99.90;;;;;;4956874;28;20035;-73
2023/06/11 07:46:59;;;;;;;11.43;6.60;;;21.40;99.90;;;;;;4954066;28;20382;-74
2023/06/11 07:49:25;;;;;;;11.38;7.90;;;21.60;99.90;;;;;;4954030;28;20023;-73
2023/06/11 07:51:51;;;;;;;12.52;6.65;;;21.70;99.90;;;;;;4974296;28;20027;-74
2023/06/11 07:54:18;;;;;;;13.00;8.25;;;21.70;99.90;;;;;;4955461;28;20046;-74
2023/06/11 07:56:46;;;;;;;14.27;8.18;;;21.80;99.90;;;;;;4974176;28;20034;-73
2023/06/11 07:59:13;;;;;;;12.27;7.78;;;22.00;99.90;;;;;;4961519;28;20035;-74
2023/06/11 08:01:38;;;;;;;16.83;8.65;;;22.10;99.90;;;;;;4972067;28;20113;-74
2023/06/11 08:04:04;;;;;;;12.18;8.77;;;22.20;99.90;;;;;;4961461;28;20173;-74
2023/06/11 08:06:30;;;;;;;13.15;8.55;;;22.30;99.90;;;;;;4958147;28;20039;-74
2023/06/11 08:08:56;;;;;;;13.25;8.65;;;22.40;99.90;;;;;;4973627;28;20125;-74
2023/06/11 08:11:23;;;;;;;15.77;8.98;;;22.50;99.90;;;;;;4956426;28;20038;-74
2023/06/11 08:13:48;;;;;;;12.75;8.23;;;22.70;99.90;;;;;;4973325;28;20137;-76
2023/06/11 08:16:17;;;;;;;13.88;9.88;;;22.90;99.90;;;;;;4969908;28;20039;-75
2023/06/11 08:18:42;;;;;;;14.43;8.88;;;22.90;99.90;;;;;;4973544;28;20081;-75
2023/06/11 08:21:08;;;;;;;14.25;9.43;;;23.00;99.90;;;;;;4973496;28;20411;-74
2023/06/11 08:23:37;;;;;;;15.05;9.20;;;23.00;99.90;;;;;;4973744;28;20018;-74
2023/06/11 08:26:03;;;;;;;13.65;9.25;;;23.00;99.90;;;;;;4973196;28;20031;-74
2023/06/11 08:28:29;;;;;;;15.15;9.55;;;23.40;99.90;;;;;;4974232;28;20031;-76
2023/06/11 08:30:56;;;;;;;13.90;9.98;;;;;;;;;;4973089;28;20066;-74
2023/06/11 08:33:22;;;;;;;15.43;9.10;;;24.10;99.90;;;;;;4973428;28;20110;-76
2023/06/11 08:35:48;;;;;;;12.63;9.00;;;24.50;99.90;;;;;;4973007;28;20173;-73
2023/06/11 08:38:14;;;;;;;11.00;7.97;;;24.20;99.90;;;;;;4973564;28;20030;-73
2023/06/11 08:40:41;;;;;;;13.02;8.93;;;24.10;99.90;;;;;;4973370;28;20030;-76
2023/06/11 08:43:08;;;;;;;12.95;8.98;;;24.20;99.90;;;;;;4972967;28;20023;-76
2023/06/11 08:45:34;;;;;;;13.02;8.95;;;24.10;99.90;;;;;;4973308;28;20730;-74
2023/06/11 08:48:03;;;;;;;13.57;8.77;;;23.90;99.90;;;;;;4972516;28;20545;-74
2023/06/11 08:50:33;;;;;;;13.63;9.07;;;24.20;99.90;;;;;;4973311;28;20041;-76
2023/06/11 08:53:02;;;;;;;13.40;8.57;;;24.20;99.90;;;;;;4973382;28;20026;-74
2023/06/11 08:55:30;;;;;;;13.27;8.85;;;24.50;99.90;;;;;;4972766;28;20077;-74
2023/06/11 08:57:57;;;;;;;13.93;7.82;;;;;;;;;;4972152;28;20023;-73
2023/06/11 09:00:23;;;;;;;10.68;6.30;;;25.00;99.90;;;;;;4973334;28;20062;-74
2023/06/11 09:02:50;;;;;;;9.63;6.93;;;25.20;99.90;;;;;;4972587;28;20069;-76
2023/06/11 09:05:16;;;;;;;10.32;6.28;;;24.80;99.90;;;;;;4974012;28;20050;-77
2023/06/11 09:07:52;;;;;;;8.07;6.10;;;25.50;99.90;;;;;;4964404;28;20478;-72
2023/06/11 09:10:19;;;;;;;10.32;5.82;;;26.00;99.90;;;;;;4977924;28;20038;-78
2023/06/11 09:12:45;;;;;;;9.27;5.00;;;26.00;99.90;;;;;;4983295;28;20019;-73
2023/06/11 09:15:15;;;;;;;7.15;4.78;;;26.10;99.90;;;;;;4977040;28;20534;-79
2023/06/11 09:17:43;;;;;;;7.35;4.47;;;25.70;99.90;;;;;;4977351;28;20065;-78
2023/06/11 09:20:13;;;;;;;9.38;5.25;;;25.90;99.90;;;;;;4976186;28;20055;-79
2023/06/11 09:22:41;;;;;;;10.43;6.95;;;25.90;99.90;;;;;;4974449;28;20034;-78
2023/06/11 09:25:10;;;;;;;12.00;6.90;;;25.70;99.90;;;;;;4976547;28;20023;-77
2023/06/11 09:27:37;;;;;;;8.95;5.60;;;25.60;99.90;;;;;;4978588;28;20096;-77
2023/06/11 09:30:17;;;;;;;9.45;6.40;;;25.40;99.90;;;;;;4976621;28;20026;-79
2023/06/11 09:32:45;;;;;;;6.97;5.30;;;25.60;99.90;;;;;;4976352;28;20039;-77
2023/06/11 09:35:11;;;;;;;7.72;5.28;;;25.70;99.90;;;;;;4976342;28;20042;-78
2023/06/11 09:37:51;;;;;;;7.88;5.65;;;25.90;99.90;;;;;;4976583;28;20050;-73
2023/06/11 09:40:19;;;;;;;8.10;5.32;;;25.80;99.90;;;;;;4975773;28;20162;-79
2023/06/11 09:42:47;;;;;;;8.30;5.60;;;25.60;99.90;;;;;;4976622;28;20722;-79
2023/06/11 09:45:20;;;;;;;10.82;6.55;;;25.70;99.90;;;;;;4975890;28;20034;-74
2023/06/11 09:47:47;;;;;;;9.15;5.57;;;26.10;99.90;;;;;;4976425;28;20037;-79
2023/06/11 09:50:16;;;;;;;8.40;5.45;;;26.20;99.90;;;;;;4976315;28;20034;-73
2023/06/11 09:52:43;;;;;;;5.60;4.10;;;25.60;99.90;;;;;;4976231;28;20534;-75
2023/06/11 09:55:10;;;;;;;9.77;4.60;;;25.80;99.90;;;;;;4976307;28;20386;-75
2023/06/11 09:57:38;;;;;;;6.90;4.55;;;26.00;99.90;;;;;;4976061;28;20030;-75
2023/06/11 10:00:09;;;;;;;7.35;4.80;;;26.10;99.90;;;;;;4976187;28;20022;-79
2023/06/11 10:02:38;;;;;;;7.57;4.78;;;26.30;99.90;;;;;;4975957;28;20054;-76
2023/06/11 10:05:06;;;;;;;6.78;4.30;;;26.00;99.90;;;;;;4975707;28;20401;-80
2023/06/11 10:07:57;;;;;;;6.15;3.72;;;26.00;99.90;;;;;;4976273;28;20031;-75
2023/06/11 10:10:24;;;;;;;6.25;4.00;;;26.10;99.90;;;;;;4976063;28;20035;-79
2023/06/11 10:12:54;;;;;;;6.05;3.47;;;26.40;99.90;;;;;;4976226;28;20385;-77
2023/06/11 10:15:24;;;;;;;6.45;4.15;;;27.00;99.90;;;;;;4975955;28;20039;-73
2023/06/11 10:17:52;;;;;;;7.47;4.25;;;26.70;99.90;;;;;;4974509;28;20086;-77
2023/06/11 10:20:20;;;;;;;7.57;4.30;;;26.40;99.90;;;;;;4975594;28;20038;-74
2023/06/11 10:22:45;;;;;;;7.18;4.05;;;26.40;99.90;;;;;;4975216;28;20093;-75
2023/06/11 10:25:12;;;;;;;6.20;4.60;;;26.40;99.90;;;;;;4975914;28;20023;-78
2023/06/11 10:27:41;;;;;;;7.72;4.32;;;26.30;99.90;;;;;;4975008;28;20030;-78
2023/06/11 10:30:08;;;;;;;7.32;3.58;;;26.30;99.90;;;;;;4975393;28;20062;-78
2023/06/11 10:32:34;;;;;;;4.00;3.28;;;26.30;99.90;;;;;;4973118;28;20019;-79
2023/06/11 10:35:03;;;;;;;7.40;3.83;;;26.40;99.90;;;;;;4974280;28;20073;-73
2023/06/11 10:37:41;;;;;;;4.75;3.40;;;26.30;99.90;;;;;;4962759;28;20019;-73
2023/06/11 10:40:08;;;;;;;7.20;3.65;;;26.10;99.90;;;;;;4949999;28;20039;-78
2023/06/11 10:42:35;;;;;;;6.70;3.95;;;26.10;99.90;;;;;;4956587;28;20019;-75
2023/06/11 10:45:06;;;;;;;8.00;3.70;;;25.80;99.90;;;;;;4956990;28;20102;-76
2023/06/11 10:47:41;;;;;;;6.13;3.80;;;25.80;99.90;;;;;;4954654;28;20025;-78
2023/06/11 10:50:08;;;;;;;5.18;3.50;;;25.80;99.90;;;;;;4958562;28;20039;-76
2023/06/11 10:52:58;;;;;;;6.88;4.38;;;25.70;99.90;;;;;;4958553;28;20021;-74
2023/06/11 10:55:26;;;;;;;2.88;2.20;;;25.00;99.90;;;;;;4962259;28;20061;-73
2023/06/11 10:57:58;;;;;;;5.65;2.42;;;22.80;99.90;;;;;;4937263;28;20030;-75
2023/06/11 11:00:28;;;;;;;4.60;2.47;;;22.70;99.90;;;;;;4957221;28;20039;-78
2023/06/11 11:02:58;;;;;;;4.43;2.30;;;22.20;99.90;;;;;;4960784;28;20031;-77
2023/06/11 11:05:25;;;;;;;6.47;3.05;;;22.00;99.90;;;;;;4972121;28;20097;-75
2023/06/11 11:07:55;;;;;;;5.70;2.67;;;22.00;99.90;;;;;;4974940;28;20363;-75
2023/06/11 11:10:25;;;;;;;6.20;3.10;;;21.50;99.90;;;;;;4974900;28;20109;-79
2023/06/11 11:12:52;;;;;;;8.43;4.50;;;21.40;99.90;;;;;;4975263;28;20086;-76
2023/06/11 11:15:18;;;;;;;8.15;3.83;;;21.60;99.90;;;;;;4970512;28;20035;-74
2023/06/11 11:17:45;;;;;;;5.65;2.67;;;20.40;99.90;;;;;;4973720;28;20027;-76
2023/06/11 11:20:19;;;;;;;8.90;3.72;;;20.40;99.90;;;;;;4973700;28;20035;-74
2023/06/11 11:22:51;;;;;;;8.38;3.03;;;20.50;99.90;;;;;;4961685;28;20046;-77
2023/06/11 11:25:18;;;;;;;;;;;20.60;99.90;;;;;;4975328;28;20109;-79
2023/06/11 11:27:44;;;;;;;6.63;2.90;;;20.60;99.90;;;;;;4970175;28;20362;-78
2023/06/11 11:30:10;;;;;;;6.97;2.85;;;20.60;99.90;;;;;;4964914;28;20093;-72
2023/06/11 11:32:36;;;;;;;6.93;2.67;;;20.60;99.90;;;;;;4967274;28;20026;-74
2023/06/11 11:35:04;;;;;;;8.48;4.05;;;20.30;99.90;;;;;;4983211;28;20105;-73
2023/06/11 11:37:30;;;;;;;7.05;2.78;;;20.20;99.90;;;;;;4974549;28;20033;-75
2023/06/11 11:40:08;;;;;;;3.30;2.22;;;20.00;99.90;;;;;;4966470;28;20066;-75
2023/06/11 11:42:52;;;;;;;3.20;2.20;;;19.80;99.90;;;;;;4972670;28;20026;-78
2023/06/11 11:45:20;;;;;;;5.32;2.45;;;19.70;99.90;;;;;;4974352;28;20073;-75
2023/06/11 11:47:52;;;;;;;4.88;2.80;;;19.70;99.90;;;;;;4974079;28;20030;-78
2023/06/11 11:50:18;;;;;;;4.45;2.45;;;19.70;99.90;;;;;;4962172;28;20501;-78
2023/06/11 11:52:48;;;;;;;4.00;1.98;;;19.60;99.90;;;;;;4973817;28;20030;-76
2023/06/11 11:55:17;;;;;;;7.97;3.55;;;19.50;99.90;;;;;;4974487;28;20367;-73
2023/06/11 11:57:42;;;;;;;8.63;2.80;;;19.40;99.90;;;;;;4974075;28;20110;-78
2023/06/11 12:00:10;;;;;;;4.88;2.17;;;19.30;99.90;;;;;;4974031;28;20058;-79
2023/06/11 12:02:42;;;;;;;5.78;2.97;;;19.40;99.90;;;;;;4974289;28;20015;-79
2023/06/11 12:05:13;;;;;;;4.93;2.17;;;19.50;99.90;;;;;;4973660;28;20055;-76
2023/06/11 12:07:38;;;;;;;6.20;2.50;;;19.40;99.90;;;;;;4973897;28;20027;-79
2023/06/11 12:10:05;;;;;;;2.53;1.95;;;19.40;99.90;;;;;;4973754;28;20034;-75
2023/06/11 12:12:31;;;;;;;3.95;2.13;;;19.40;99.90;;;;;;4973925;28;20029;-75
2023/06/11 12:14:56;;;;;;;5.85;2.22;;;19.40;99.90;;;;;;4973641;28;20031;-78
2023/06/11 12:17:22;;;;;;;7.60;1.98;;;19.50;99.90;;;;;;4973671;28;20026;-77
2023/06/11 12:19:49;;;;;;;4.90;1.90;;;19.60;99.90;;;;;;4973555;28;20053;-77
2023/06/11 12:22:15;;;;;;;6.75;2.53;;;19.60;99.90;;;;;;4973662;28;20106;-77
2023/06/11 12:24:41;;;;;;;4.50;2.03;;;19.40;99.90;;;;;;4973818;28;20023;-79
2023/06/11 12:27:08;;;;;;;4.22;2.15;;;19.40;99.90;;;;;;4969444;28;20019;-77
2023/06/11 12:29:34;;;;;;;2.85;1.92;;;19.40;99.90;;;;;;4973725;28;20033;-77
2023/06/11 12:31:59;;;;;;;3.72;2.03;;;19.40;99.90;;;;;;4973471;28;20102;-74
2023/06/11 12:34:25;;;;;;;3.85;1.90;;;19.50;99.90;;;;;;4973504;28;20446;-75
2023/06/11 12:36:51;;;;;;;3.55;2.13;;;19.50;99.90;;;;;;4979420;28;20478;-77
2023/06/11 12:39:17;;;;;;;3.10;1.88;;;19.40;99.90;;;;;;4993875;28;20034;-74
2023/06/11 12:41:44;;;;;;;4.00;2.15;;;19.50;99.90;;;;;;4967388;28;20029;-78
2023/06/11 12:44:16;;;;;;;4.80;2.55;;;19.30;99.90;;;;;;4974351;28;20018;-76
2023/06/11 12:46:42;;;;;;;4.75;2.70;;;19.20;99.90;;;;;;4974069;28;20544;-77